createdAt,value
2023-05-10T00:00:32.375Z,51.65
2023-05-10T00:03:00.795Z,55.97
2023-05-10T00:05:29.234Z,61.53
2023-05-10T00:07:57.608Z,60.35
2023-05-10T00:10:25.982Z,46.67
2023-05-10T00:12:54.310Z,52.65
2023-05-10T00:15:24.111Z,46.97
2023-05-10T00:17:52.429Z,44.22
2023-05-10T00:20:20.816Z,44.05
2023-05-10T00:22:49.128Z,45.83
2023-05-10T00:25:17.696Z,42.45
2023-05-10T00:27:45.921Z,42.35
2023-05-10T00:30:14.687Z,36.63
2023-05-10T00:32:44.927Z,39.85
2023-05-10T00:35:13.265Z,37.13
2023-05-10T00:37:41.530Z,38.22
2023-05-10T00:40:10.310Z,35.72
2023-05-10T00:42:38.539Z,42.60
2023-05-10T00:45:09.733Z,39.10
2023-05-10T00:47:38.155Z,43.10
2023-05-10T00:50:10.122Z,43.85
2023-05-10T00:52:38.616Z,43.25
2023-05-10T00:55:08.283Z,38.47
2023-05-10T00:57:36.669Z,36.72
2023-05-10T01:00:06.140Z,39.00
2023-05-10T01:02:36.545Z,32.00
2023-05-10T01:05:07.487Z,38.38
2023-05-10T01:07:35.810Z,35.75
2023-05-10T01:10:05.773Z,30.45
2023-05-10T01:12:34.425Z,32.17
2023-05-10T01:15:03.322Z,28.35
2023-05-10T01:17:35.695Z,34.25
2023-05-10T01:20:04.204Z,28.27
2023-05-10T01:22:58.958Z,33.45
2023-05-10T01:25:45.702Z,31.70
2023-05-10T01:28:55.821Z,27.80
2023-05-10T01:31:45.016Z,30.10
2023-05-10T01:34:19.261Z,37.50
2023-05-10T01:36:53.340Z,39.65
2023-05-10T01:39:27.987Z,49.00
2023-05-10T01:42:04.523Z,47.00
2023-05-10T01:44:38.161Z,48.92
2023-05-10T01:47:12.069Z,38.03
2023-05-10T01:49:48.497Z,48.45
2023-05-10T01:52:20.808Z,41.45
2023-05-10T01:54:55.689Z,31.85
2023-05-10T01:57:27.921Z,27.02
2023-05-10T01:59:57.356Z,39.08
2023-05-10T02:02:27.942Z,32.17
2023-05-10T02:05:00.505Z,38.13
2023-05-10T02:07:30.795Z,30.80
2023-05-10T02:10:00.561Z,30.42
2023-05-10T02:12:31.085Z,26.67
2023-05-10T02:15:01.977Z,24.33
2023-05-10T02:17:34.630Z,31.30
2023-05-10T02:20:07.086Z,22.52
2023-05-10T02:22:36.147Z,34.03
2023-05-10T02:25:05.972Z,28.70
2023-05-10T02:27:35.865Z,25.88
2023-05-10T02:30:04.655Z,24.23
2023-05-10T02:32:36.517Z,20.50
2023-05-10T02:35:08.038Z,29.60
2023-05-10T02:37:39.142Z,25.50
2023-05-10T02:40:09.592Z,22.75
2023-05-10T02:42:40.250Z,26.08
2023-05-10T02:45:13.848Z,22.70
2023-05-10T02:47:44.839Z,19.85
2023-05-10T02:50:15.380Z,19.38
2023-05-10T02:52:48.795Z,19.35
2023-05-10T02:55:18.428Z,21.45
2023-05-10T02:57:53.316Z,16.33
2023-05-10T03:00:22.018Z,24.73
2023-05-10T03:02:50.271Z,26.52
2023-05-10T03:05:20.231Z,25.23
2023-05-10T03:07:49.540Z,24.40
2023-05-10T03:10:18.084Z,24.85
2023-05-10T03:13:04.027Z,19.45
2023-05-10T03:15:40.316Z,19.95
2023-05-10T03:18:12.282Z,24.27
2023-05-10T03:20:45.899Z,20.27
2023-05-10T03:23:21.657Z,17.17
2023-05-10T03:25:52.431Z,23.60
2023-05-10T03:28:22.681Z,20.85
2023-05-10T03:30:52.133Z,28.52
2023-05-10T03:33:20.532Z,29.63
2023-05-10T03:35:50.787Z,17.38
2023-05-10T03:38:19.091Z,16.50
2023-05-10T03:40:48.460Z,15.50
2023-05-10T03:43:16.918Z,18.50
2023-05-10T03:45:45.210Z,17.05
2023-05-10T03:48:14.797Z,17.67
2023-05-10T03:50:44.016Z,19.42
2023-05-10T03:53:14.493Z,16.65
2023-05-10T03:55:42.670Z,20.55
2023-05-10T03:58:13.472Z,23.08
2023-05-10T04:00:44.788Z,23.73
2023-05-10T04:03:14.051Z,19.70
2023-05-10T04:05:42.548Z,20.50
2023-05-10T04:08:11.201Z,20.70
2023-05-10T04:10:41.112Z,16.10
2023-05-10T04:13:09.432Z,19.83
2023-05-10T04:15:37.708Z,16.38
2023-05-10T04:18:08.705Z,14.80
2023-05-10T04:20:37.169Z,13.75
2023-05-10T04:23:05.557Z,14.30
2023-05-10T04:25:36.592Z,15.13
2023-05-10T04:28:06.482Z,12.38
2023-05-10T04:30:34.776Z,8.75
2023-05-10T04:33:03.589Z,17.50
2023-05-10T04:35:31.796Z,12.00
2023-05-10T04:38:00.140Z,12.02
2023-05-10T04:40:28.468Z,14.25
2023-05-10T04:42:56.850Z,15.98
2023-05-10T04:45:26.404Z,12.07
2023-05-10T04:47:54.706Z,11.18
2023-05-10T04:50:22.880Z,15.48
2023-05-10T04:52:52.682Z,10.48
2023-05-10T04:55:22.116Z,17.95
2023-05-10T04:57:50.345Z,12.38
2023-05-10T05:00:19.091Z,9.65
2023-05-10T05:02:48.940Z,9.50
2023-05-10T05:05:17.481Z,27.85
2023-05-10T05:07:45.709Z,15.00
2023-05-10T05:10:14.304Z,17.20
2023-05-10T05:12:42.676Z,18.92
2023-05-10T05:15:11.777Z,29.95
2023-05-10T05:17:40.082Z,15.02
2023-05-10T05:20:11.110Z,25.27
2023-05-10T05:22:39.414Z,8.50
2023-05-10T05:25:08.569Z,13.32
2023-05-10T05:27:36.890Z,11.77
2023-05-10T05:30:06.172Z,8.10
2023-05-10T05:32:34.551Z,16.00
2023-05-10T05:35:02.746Z,11.48
2023-05-10T05:37:33.679Z,7.88
2023-05-10T05:40:02.831Z,9.90
2023-05-10T05:42:33.591Z,9.35
2023-05-10T05:45:01.995Z,10.13
2023-05-10T05:47:34.099Z,11.10
2023-05-10T05:50:02.484Z,8.00
2023-05-10T05:52:34.226Z,13.15
2023-05-10T05:55:02.808Z,8.63
2023-05-10T05:57:32.873Z,8.13
2023-05-10T06:00:01.265Z,9.35
2023-05-10T06:02:30.777Z,8.55
2023-05-10T06:04:59.315Z,10.85
2023-05-10T06:07:27.716Z,11.10
2023-05-10T06:09:57.444Z,9.73
2023-05-10T06:12:25.660Z,7.63
2023-05-10T06:14:53.893Z,11.25
2023-05-10T06:17:22.793Z,7.63
2023-05-10T06:19:51.153Z,9.65
2023-05-10T06:22:19.470Z,6.47
2023-05-10T06:24:47.662Z,7.45
2023-05-10T06:27:17.488Z,6.03
2023-05-10T06:29:45.705Z,11.82
2023-05-10T06:32:14.073Z,9.63
2023-05-10T06:34:44.204Z,9.48
2023-05-10T06:37:12.467Z,10.55
2023-05-10T06:39:40.725Z,12.05
2023-05-10T06:42:09.192Z,7.10
2023-05-10T06:44:39.016Z,7.78
2023-05-10T06:47:07.470Z,14.95
2023-05-10T06:49:35.667Z,12.07
2023-05-10T06:52:03.927Z,9.02
2023-05-10T06:54:32.202Z,11.18
2023-05-10T06:57:01.845Z,11.50
2023-05-10T06:59:31.523Z,8.48
2023-05-10T07:02:01.493Z,7.95
2023-05-10T07:04:29.906Z,11.38
2023-05-10T07:06:58.760Z,7.80
2023-05-10T07:09:27.003Z,7.90
2023-05-10T07:11:55.162Z,14.40
2023-05-10T07:14:23.527Z,9.63
2023-05-10T07:16:51.708Z,15.73
2023-05-10T07:19:21.626Z,12.45
2023-05-10T07:21:49.850Z,9.52
2023-05-10T07:24:18.135Z,9.23
2023-05-10T07:26:46.249Z,9.90
2023-05-10T07:29:14.733Z,12.35
2023-05-10T07:31:43.860Z,9.88
2023-05-10T07:34:12.346Z,10.32
2023-05-10T07:36:42.040Z,10.98
2023-05-10T07:39:11.500Z,11.13
2023-05-10T07:41:40.924Z,8.77
2023-05-10T07:44:09.213Z,9.85
2023-05-10T07:46:37.502Z,10.38
2023-05-10T07:49:06.740Z,13.10
2023-05-10T07:51:34.967Z,10.52
2023-05-10T07:54:05.193Z,11.55
2023-05-10T07:56:34.598Z,9.82
2023-05-10T07:59:04.806Z,8.63
2023-05-10T08:01:34.213Z,9.88
2023-05-10T08:04:03.131Z,6.95
2023-05-10T08:06:43.241Z,15.75
2023-05-10T08:09:13.079Z,18.83
2023-05-10T08:11:41.344Z,7.63
2023-05-10T08:14:09.640Z,15.07
2023-05-10T08:16:37.925Z,8.73
2023-05-10T08:19:06.445Z,9.90
2023-05-10T08:21:34.859Z,10.77
2023-05-10T08:24:03.139Z,7.53
2023-05-10T08:26:33.165Z,10.70
2023-05-10T08:29:01.443Z,7.50
2023-05-10T08:31:29.854Z,10.43
2023-05-10T08:33:58.237Z,11.02
2023-05-10T08:36:26.618Z,12.77
2023-05-10T08:38:56.612Z,13.07
2023-05-10T08:41:27.244Z,19.55
2023-05-10T08:43:57.171Z,11.95
2023-05-10T08:46:25.708Z,10.35
2023-05-10T08:48:55.833Z,8.00
2023-05-10T08:51:28.829Z,13.15
2023-05-10T08:53:58.424Z,10.32
2023-05-10T08:56:26.830Z,8.15
2023-05-10T08:58:56.632Z,6.55
2023-05-10T09:01:25.281Z,7.82
2023-05-10T09:03:53.867Z,6.65
2023-05-10T09:06:22.836Z,7.97
2023-05-10T09:08:52.728Z,8.50
2023-05-10T09:11:22.757Z,9.70
2023-05-10T09:13:53.477Z,6.40
2023-05-10T09:16:23.744Z,9.30
2023-05-10T09:18:52.212Z,6.97
2023-05-10T09:21:22.157Z,11.45
2023-05-10T09:23:52.017Z,26.65
2023-05-10T09:26:24.780Z,5.47
2023-05-10T09:28:54.661Z,9.57
2023-05-10T09:31:26.113Z,13.07
2023-05-10T09:33:55.600Z,8.10
2023-05-10T09:36:23.818Z,73.38
2023-05-10T09:38:54.044Z,10.32
2023-05-10T09:41:24.093Z,4.72
2023-05-10T09:43:57.222Z,6.80
2023-05-10T09:46:27.176Z,6.70
2023-05-10T09:48:55.438Z,5.03
2023-05-10T09:51:24.609Z,7.80
2023-05-10T09:54:11.620Z,9.05
2023-05-10T09:56:41.700Z,6.68
2023-05-10T09:59:14.012Z,6.20
2023-05-10T10:01:43.818Z,8.55
2023-05-10T10:04:12.599Z,11.60
2023-05-10T10:06:41.804Z,6.30
2023-05-10T10:09:10.805Z,11.77
2023-05-10T10:11:42.444Z,15.15
2023-05-10T10:14:11.351Z,5.75
2023-05-10T10:16:45.945Z,6.50
2023-05-10T10:19:25.460Z,7.25
2023-05-10T10:21:53.701Z,4.55
2023-05-10T10:24:22.044Z,22.13
2023-05-10T10:26:54.528Z,11.48
2023-05-10T10:29:28.313Z,9.93
2023-05-10T10:32:05.646Z,4.65
2023-05-10T10:34:36.568Z,17.13
2023-05-10T10:37:07.652Z,7.40
2023-05-10T10:39:37.752Z,7.53
2023-05-10T10:42:06.690Z,3.28
2023-05-10T10:44:42.688Z,5.20
2023-05-10T10:47:30.821Z,4.57
2023-05-10T10:50:08.683Z,21.95
2023-05-10T10:52:38.123Z,8.27
2023-05-10T10:55:09.454Z,8.23
2023-05-10T10:57:52.859Z,4.20
2023-05-10T11:00:27.125Z,6.97
2023-05-10T11:02:58.544Z,8.32
2023-05-10T11:05:42.655Z,3.10
2023-05-10T11:08:17.230Z,10.75
2023-05-10T11:11:04.967Z,10.98
2023-05-10T11:13:35.912Z,10.60
2023-05-10T11:16:18.897Z,7.32
2023-05-10T11:19:00.776Z,10.48
2023-05-10T11:21:31.217Z,8.25
2023-05-10T11:24:00.732Z,8.93
2023-05-10T11:26:37.047Z,3.90
2023-05-10T11:29:06.109Z,10.63
2023-05-10T11:31:34.744Z,7.20
2023-05-10T11:34:03.822Z,10.23
2023-05-10T11:36:36.138Z,15.13
2023-05-10T11:39:05.775Z,16.33
2023-05-10T11:41:34.428Z,14.70
2023-05-10T11:44:03.840Z,6.13
2023-05-10T11:46:32.320Z,10.05
2023-05-10T11:49:05.312Z,16.15
2023-05-10T11:51:37.878Z,30.92
2023-05-10T11:54:09.368Z,7.68
2023-05-10T11:56:38.506Z,18.75
2023-05-10T11:59:06.815Z,13.63
2023-05-10T12:01:36.139Z,39.95
2023-05-10T12:04:05.246Z,9.93
2023-05-10T12:06:39.790Z,7.80
2023-05-10T12:09:09.828Z,11.63
2023-05-10T12:11:43.299Z,5.82
2023-05-10T12:14:12.652Z,3.83
2023-05-10T12:16:40.991Z,7.82
2023-05-10T12:19:09.418Z,7.50
2023-05-10T12:21:40.097Z,5.47
2023-05-10T12:24:09.521Z,5.03
2023-05-10T12:26:38.329Z,11.13
2023-05-10T12:29:17.891Z,9.05
2023-05-10T12:31:54.524Z,3.53
2023-05-10T12:34:27.545Z,12.55
2023-05-10T12:36:57.594Z,12.90
2023-05-10T12:39:26.222Z,5.32
2023-05-10T12:41:54.995Z,14.55
2023-05-10T12:44:23.232Z,15.48
2023-05-10T12:46:51.613Z,7.05
2023-05-10T12:49:20.689Z,6.57
2023-05-10T12:51:48.914Z,8.05
2023-05-10T12:54:18.565Z,12.57
2023-05-10T12:56:47.009Z,10.27
2023-05-10T12:59:15.387Z,16.35
2023-05-10T13:01:43.830Z,25.67
2023-05-10T13:04:12.370Z,12.02
2023-05-10T13:06:40.698Z,7.35
2023-05-10T13:09:09.072Z,19.38
2023-05-10T13:11:38.863Z,22.40
2023-05-10T13:14:07.149Z,16.88
2023-05-10T13:16:35.728Z,12.10
2023-05-10T13:19:04.140Z,6.55
2023-05-10T13:21:32.398Z,3.83
2023-05-10T13:24:01.192Z,7.55
2023-05-10T13:26:29.748Z,6.55
2023-05-10T13:28:59.648Z,6.90
2023-05-10T13:31:28.085Z,10.50
2023-05-10T13:33:56.502Z,5.68
2023-05-10T13:36:25.210Z,11.10
2023-05-10T13:38:53.417Z,6.40
2023-05-10T13:41:21.898Z,7.75
2023-05-10T13:43:50.542Z,9.25
2023-05-10T13:46:20.465Z,9.25
2023-05-10T13:48:48.808Z,4.85
2023-05-10T13:51:17.061Z,13.45
2023-05-10T13:53:45.348Z,21.00
2023-05-10T13:56:13.808Z,3.60
2023-05-10T13:58:42.910Z,3.83
2023-05-10T14:01:11.198Z,6.32
2023-05-10T14:03:41.067Z,22.25
2023-05-10T14:06:10.355Z,9.23
2023-05-10T14:08:38.667Z,9.05
2023-05-10T14:11:07.341Z,72.25
2023-05-10T14:13:36.000Z,34.80
2023-05-10T14:16:04.229Z,8.20
2023-05-10T14:18:32.641Z,11.82
2023-05-10T14:21:02.726Z,5.38
2023-05-10T14:23:31.411Z,9.60
2023-05-10T14:25:59.619Z,5.15
2023-05-10T14:28:27.992Z,4.10
2023-05-10T14:30:56.455Z,6.80
2023-05-10T14:33:24.929Z,11.13
2023-05-10T14:35:53.265Z,19.33
2023-05-10T14:38:22.953Z,8.63
2023-05-10T14:40:51.282Z,10.68
2023-05-10T14:43:19.496Z,15.27
2023-05-10T14:45:48.625Z,11.00
2023-05-10T14:48:18.482Z,9.48
2023-05-10T14:50:47.836Z,19.67
2023-05-10T14:53:16.123Z,17.65
2023-05-10T14:55:45.820Z,22.73
2023-05-10T14:58:14.008Z,5.13
2023-05-10T15:00:43.020Z,9.95
2023-05-10T15:03:13.108Z,26.42
2023-05-10T15:05:42.175Z,10.32
2023-05-10T15:08:10.806Z,11.63
2023-05-10T15:10:39.595Z,8.82
2023-05-10T15:13:09.148Z,17.90
2023-05-10T15:15:37.430Z,7.10
2023-05-10T15:18:06.707Z,8.70
2023-05-10T15:20:35.029Z,7.60
2023-05-10T15:23:03.721Z,16.05
2023-05-10T15:25:32.216Z,12.00
2023-05-10T15:28:00.553Z,12.77
2023-05-10T15:30:30.746Z,10.80
2023-05-10T15:32:59.196Z,22.27
2023-05-10T15:35:28.253Z,16.98
2023-05-10T15:37:56.623Z,6.78
2023-05-10T15:40:24.911Z,8.90
2023-05-10T15:42:53.204Z,7.18
2023-05-10T15:45:22.170Z,8.40
2023-05-10T15:47:52.477Z,8.50
2023-05-10T15:50:20.815Z,11.32
2023-05-10T15:52:49.600Z,16.35
2023-05-10T15:55:18.521Z,9.15
2023-05-10T15:57:48.889Z,9.38
2023-05-10T16:00:18.035Z,9.48
2023-05-10T16:02:46.518Z,12.25
2023-05-10T16:05:17.135Z,13.70
2023-05-10T16:07:45.675Z,11.85
2023-05-10T16:10:14.019Z,8.68
2023-05-10T16:12:42.517Z,9.20
2023-05-10T16:15:11.558Z,6.90
2023-05-10T16:17:39.962Z,5.18
2023-05-10T16:20:09.570Z,8.30
2023-05-10T16:22:39.433Z,13.50
2023-05-10T16:25:08.486Z,12.32
2023-05-10T16:27:37.398Z,11.52
2023-05-10T16:30:06.815Z,11.35
2023-05-10T16:32:35.191Z,10.50
2023-05-10T16:35:03.590Z,19.80
2023-05-10T16:37:33.096Z,8.75
2023-05-10T16:40:03.150Z,18.33
2023-05-10T16:42:32.378Z,8.35
2023-05-10T16:45:07.274Z,15.23
2023-05-10T16:47:36.001Z,11.20
2023-05-10T16:50:05.085Z,8.45
2023-05-10T16:52:34.412Z,10.77
2023-05-10T16:55:05.278Z,9.63
2023-05-10T16:57:35.340Z,15.45
2023-05-10T17:00:04.446Z,10.45
2023-05-10T17:02:36.684Z,11.80
2023-05-10T17:05:05.674Z,9.18
2023-05-10T17:07:33.947Z,10.82
2023-05-10T17:10:03.752Z,10.63
2023-05-10T17:12:33.067Z,10.65
2023-05-10T17:15:01.433Z,15.35
2023-05-10T17:17:29.931Z,14.32
2023-05-10T17:19:58.676Z,11.00
2023-05-10T17:22:26.949Z,7.25
2023-05-10T17:24:55.262Z,12.75
2023-05-10T17:27:24.849Z,9.20
2023-05-10T17:29:57.507Z,14.52
2023-05-10T17:32:26.498Z,19.60
2023-05-10T17:34:54.829Z,11.60
2023-05-10T17:37:23.160Z,10.88
2023-05-10T17:39:51.596Z,8.70
2023-05-10T17:42:20.862Z,9.32
2023-05-10T17:44:50.507Z,9.73
2023-05-10T17:47:18.974Z,16.17
2023-05-10T17:49:47.158Z,13.90
2023-05-10T17:52:15.517Z,15.43
2023-05-10T17:54:43.727Z,24.23
2023-05-10T17:57:11.970Z,19.65
2023-05-10T17:59:40.241Z,21.02
2023-05-10T18:02:10.369Z,83.88
2023-05-10T18:04:40.981Z,74.60
2023-05-10T18:07:10.945Z,61.70
2023-05-10T18:09:39.456Z,70.65
2023-05-10T18:12:08.571Z,73.38
2023-05-10T18:14:41.034Z,63.20
2023-05-10T18:17:11.872Z,49.50
2023-05-10T18:19:41.058Z,43.78
2023-05-10T18:22:10.912Z,44.75
2023-05-10T18:24:41.228Z,45.45
2023-05-10T18:27:12.766Z,50.72
2023-05-10T18:29:42.384Z,43.45
2023-05-10T18:32:12.308Z,38.00
2023-05-10T18:34:41.075Z,35.78
2023-05-10T18:37:10.333Z,55.58
2023-05-10T18:39:39.883Z,40.38
2023-05-10T18:42:11.122Z,42.63
2023-05-10T18:44:39.460Z,40.92
2023-05-10T18:47:07.692Z,31.55
2023-05-10T18:49:37.463Z,39.88
2023-05-10T18:52:05.714Z,35.92
2023-05-10T18:54:34.005Z,41.97
2023-05-10T18:57:02.335Z,44.00
2023-05-10T18:59:30.681Z,33.53
2023-05-10T19:01:58.978Z,51.55
2023-05-10T19:04:27.421Z,86.93
2023-05-10T19:06:57.123Z,37.85
2023-05-10T19:09:25.456Z,39.83
2023-05-10T19:11:53.686Z,33.75
2023-05-10T19:14:22.501Z,45.22
2023-05-10T19:16:51.974Z,36.38
2023-05-10T19:19:20.648Z,54.60
2023-05-10T19:21:48.943Z,58.60
2023-05-10T19:24:19.743Z,40.38
2023-05-10T19:26:48.680Z,47.83
2023-05-10T19:29:17.149Z,50.25
2023-05-10T19:31:46.488Z,53.30
2023-05-10T19:34:14.861Z,47.10
2023-05-10T19:36:43.105Z,49.33
2023-05-10T19:39:11.691Z,72.88
2023-05-10T19:41:41.489Z,74.68
2023-05-10T19:44:09.806Z,63.50
2023-05-10T19:46:38.111Z,70.50
2023-05-10T19:49:06.416Z,61.30
2023-05-10T19:51:34.822Z,66.57
2023-05-10T19:54:03.030Z,78.28
2023-05-10T19:56:31.304Z,71.60
2023-05-10T19:59:03.065Z,73.72
2023-05-10T20:01:32.890Z,80.15
2023-05-10T20:04:01.387Z,76.63
2023-05-10T20:06:29.895Z,66.15
2023-05-10T20:08:58.284Z,65.47
2023-05-10T20:11:26.558Z,72.72
2023-05-10T20:13:54.735Z,75.45
2023-05-10T20:16:26.614Z,68.85
2023-05-10T20:18:55.533Z,63.80
2023-05-10T20:21:24.025Z,73.38
2023-05-10T20:23:52.445Z,69.80
2023-05-10T20:26:21.699Z,61.47
2023-05-10T20:28:50.950Z,45.83
2023-05-10T20:31:19.194Z,59.03
2023-05-10T20:33:48.923Z,54.78
2023-05-10T20:36:17.227Z,64.82
2023-05-10T20:38:45.515Z,54.60
2023-05-10T20:41:13.818Z,44.88
2023-05-10T20:43:42.340Z,50.22
2023-05-10T20:46:10.757Z,45.63
2023-05-10T20:48:38.970Z,40.60
2023-05-10T20:51:08.648Z,46.13
2023-05-10T20:53:36.880Z,41.05
2023-05-10T20:56:05.219Z,47.92
2023-05-10T20:58:33.502Z,59.20
2023-05-10T21:01:02.328Z,63.38
2023-05-10T21:03:30.600Z,55.03
2023-05-10T21:05:58.881Z,48.78
2023-05-10T21:08:28.629Z,51.63
2023-05-10T21:10:56.975Z,56.90
2023-05-10T21:13:25.344Z,49.72
2023-05-10T21:15:53.601Z,71.25
2023-05-10T21:18:22.144Z,68.50
2023-05-10T21:20:50.772Z,68.38
2023-05-10T21:23:19.118Z,68.38
2023-05-10T21:25:48.832Z,63.60
2023-05-10T21:28:17.103Z,62.78
2023-05-10T21:30:45.383Z,52.30
2023-05-10T21:33:13.871Z,54.83
2023-05-10T21:35:43.052Z,53.78
2023-05-10T21:38:11.936Z,48.10
2023-05-10T21:40:40.899Z,48.58
2023-05-10T21:43:11.342Z,56.67
2023-05-10T21:45:39.908Z,57.45
2023-05-10T21:48:08.236Z,51.30
2023-05-10T21:50:36.790Z,43.30
2023-05-10T21:53:05.378Z,60.35
2023-05-10T21:55:34.654Z,44.72
2023-05-10T21:58:03.097Z,44.47
2023-05-10T22:00:34.157Z,43.47
2023-05-10T22:03:03.272Z,60.63
2023-05-10T22:05:31.731Z,59.72
2023-05-10T22:08:00.043Z,45.42
2023-05-10T22:10:28.324Z,42.47
2023-05-10T22:12:57.309Z,38.17
2023-05-10T22:15:25.551Z,58.47
2023-05-10T22:17:55.352Z,50.75
2023-05-10T22:20:23.730Z,47.03
2023-05-10T22:22:52.069Z,50.33
2023-05-10T22:25:20.551Z,49.80
2023-05-10T22:27:48.857Z,54.10
2023-05-10T22:30:17.616Z,50.22
2023-05-10T22:32:46.594Z,44.70
2023-05-10T22:35:16.233Z,47.92
2023-05-10T22:37:44.412Z,42.20
2023-05-10T22:40:13.916Z,45.10
2023-05-10T22:42:42.168Z,36.58
2023-05-10T22:45:11.595Z,39.35
2023-05-10T22:47:39.869Z,37.92
2023-05-10T22:50:09.747Z,31.25
2023-05-10T22:52:40.031Z,25.42
2023-05-10T22:55:09.017Z,35.00
2023-05-10T22:57:37.579Z,35.03
2023-05-10T23:00:07.360Z,42.42
2023-05-10T23:02:36.037Z,62.08
2023-05-10T23:05:05.391Z,77.85
2023-05-10T23:07:34.022Z,85.93
2023-05-10T23:10:03.804Z,37.47
2023-05-10T23:12:33.967Z,31.10
2023-05-10T23:15:02.298Z,31.08
2023-05-10T23:17:34.044Z,33.60
2023-05-10T23:20:02.364Z,34.92
2023-05-10T23:22:32.268Z,32.63
2023-05-10T23:25:00.712Z,35.65
2023-05-10T23:27:31.491Z,33.45
2023-05-10T23:29:59.788Z,36.30
2023-05-10T23:32:28.136Z,36.42
2023-05-10T23:34:56.532Z,29.55
2023-05-10T23:37:24.776Z,33.28
2023-05-10T23:39:53.276Z,34.65
2023-05-10T23:42:21.733Z,41.50
2023-05-10T23:44:52.141Z,33.97
2023-05-10T23:47:20.640Z,47.00
2023-05-10T23:49:50.682Z,59.15
2023-05-10T23:52:18.955Z,93.22
2023-05-10T23:54:47.407Z,125.28
2023-05-10T23:57:15.815Z,52.35
2023-05-10T23:59:44.041Z,91.60
